Juniper, Georgia
Current Conditions -  °F | °C
As of 4:51 PM on Wednesday 28 Jan 2015 (Local Time) from KCSG Reporting Station
Clear Clear  
Wind Chill: 57°   Ceiling: Unl
Heat Index: 57°   Visibility: 10mi
Dew Point: 26°   Wind: 3mph
Humidity: 30%   Direction: NA
Pressure: 30.24"   Gusts: NA
Location:  32.585°N, 84.6173°W
Report Text: KCSG 282151Z VRB03KT 10SM CLR 14/M03 A3024 RMK AO2 SLP240 T01391033
Loading
Personal Weather Stations






























Interactive Weather Map New forecast layout! Learn more

10-Day Weather Forecast

Advertisements
Track Severe Weather on mobile